createdAt,value
2023-01-25T00:00:50.663Z,4.45
2023-01-25T00:03:18.817Z,6.43
2023-01-25T00:05:46.775Z,5.70
2023-01-25T00:08:14.687Z,6.10
2023-01-25T00:10:42.623Z,5.53
2023-01-25T00:13:10.566Z,5.80
2023-01-25T00:15:39.850Z,5.70
2023-01-25T00:18:07.804Z,5.53
2023-01-25T00:20:35.710Z,5.68
2023-01-25T00:23:03.737Z,5.20
2023-01-25T00:25:31.700Z,5.93
2023-01-25T00:27:59.641Z,5.10
2023-01-25T00:30:27.752Z,5.97
2023-01-25T00:33:07.256Z,5.13
2023-01-25T00:35:35.880Z,4.53
2023-01-25T00:38:08.680Z,4.57
2023-01-25T00:40:36.757Z,3.72
2023-01-25T00:43:06.983Z,5.10
2023-01-25T00:45:34.918Z,4.05
2023-01-25T00:48:04.392Z,3.88
2023-01-25T00:50:33.299Z,4.35
2023-01-25T00:53:01.797Z,4.63
2023-01-25T00:55:29.721Z,5.35
2023-01-25T00:57:57.672Z,4.32
2023-01-25T01:00:25.613Z,5.15
2023-01-25T01:02:53.584Z,4.90
2023-01-25T01:05:27.529Z,5.50
2023-01-25T01:07:57.262Z,5.28
2023-01-25T01:10:25.273Z,4.82
2023-01-25T01:12:53.232Z,6.43
2023-01-25T01:15:21.206Z,5.82
2023-01-25T01:17:49.137Z,5.30
2023-01-25T01:20:17.457Z,5.90
2023-01-25T01:22:48.102Z,5.43
2023-01-25T01:25:16.018Z,3.83
2023-01-25T01:27:43.957Z,5.25
2023-01-25T01:30:12.877Z,5.50
2023-01-25T01:32:42.148Z,4.90
2023-01-25T01:35:10.749Z,4.15
2023-01-25T01:37:42.920Z,4.53
2023-01-25T01:40:15.595Z,4.68
2023-01-25T01:43:00.295Z,4.90
2023-01-25T01:45:52.253Z,6.22
2023-01-25T01:48:34.164Z,5.60
2023-01-25T01:51:06.973Z,4.55
2023-01-25T01:53:35.561Z,5.40
2023-01-25T01:56:08.950Z,5.03
2023-01-25T01:58:37.746Z,5.70
2023-01-25T02:01:06.768Z,5.75
2023-01-25T02:03:36.422Z,4.88
2023-01-25T02:06:11.244Z,5.55
2023-01-25T02:08:40.848Z,5.43
2023-01-25T02:11:13.269Z,4.38
2023-01-25T02:13:41.315Z,5.13
2023-01-25T02:16:17.555Z,5.13
2023-01-25T02:18:45.531Z,5.60
2023-01-25T02:21:14.445Z,4.95
2023-01-25T02:23:49.316Z,5.40
2023-01-25T02:26:19.741Z,5.93
2023-01-25T02:28:53.424Z,6.00
2023-01-25T02:31:24.937Z,5.20
2023-01-25T02:33:56.303Z,5.28
2023-01-25T02:36:28.171Z,6.78
2023-01-25T02:39:01.721Z,5.72
2023-01-25T02:41:34.976Z,7.00
2023-01-25T02:44:06.105Z,6.20
2023-01-25T02:46:36.044Z,5.40
2023-01-25T02:49:06.568Z,5.90
2023-01-25T02:51:39.728Z,5.22
2023-01-25T02:54:10.034Z,5.93
2023-01-25T02:56:41.268Z,5.05
2023-01-25T02:59:09.705Z,4.80
2023-01-25T03:01:39.662Z,4.60
2023-01-25T03:04:09.040Z,4.85
2023-01-25T03:06:37.850Z,5.78
2023-01-25T03:09:09.488Z,5.35
2023-01-25T03:11:41.062Z,5.15
2023-01-25T03:14:09.104Z,5.35
2023-01-25T03:16:37.279Z,4.60
2023-01-25T03:19:06.704Z,5.28
2023-01-25T03:21:34.708Z,4.57
2023-01-25T03:24:05.038Z,5.13
2023-01-25T03:26:52.933Z,4.95
2023-01-25T03:29:23.987Z,4.95
2023-01-25T03:31:52.249Z,4.13
2023-01-25T03:34:20.633Z,5.53
2023-01-25T03:36:48.649Z,4.03
2023-01-25T03:39:16.838Z,3.75
2023-01-25T03:41:44.843Z,4.50
2023-01-25T03:44:14.775Z,4.25
2023-01-25T03:46:46.682Z,4.00
2023-01-25T03:49:14.821Z,4.18
2023-01-25T03:51:43.309Z,3.65
2023-01-25T03:54:11.299Z,4.25
2023-01-25T03:56:39.298Z,3.67
2023-01-25T03:59:12.717Z,4.40
2023-01-25T04:01:40.860Z,4.68
2023-01-25T04:04:10.394Z,4.07
2023-01-25T04:06:40.387Z,3.58
2023-01-25T04:09:08.703Z,3.78
2023-01-25T04:11:42.830Z,3.67
2023-01-25T04:14:13.008Z,3.28
2023-01-25T04:16:47.224Z,3.58
2023-01-25T04:19:36.265Z,3.67
2023-01-25T04:22:05.680Z,4.25
2023-01-25T04:24:37.689Z,4.00
2023-01-25T04:27:06.309Z,4.40
2023-01-25T04:29:41.912Z,4.40
2023-01-25T04:32:15.581Z,2.97
2023-01-25T04:34:45.538Z,3.80
2023-01-25T04:37:17.992Z,4.72
2023-01-25T04:39:53.380Z,4.25
2023-01-25T04:42:21.912Z,3.67
2023-01-25T04:44:54.171Z,5.15
2023-01-25T04:47:22.243Z,3.70
2023-01-25T04:49:54.292Z,3.72
2023-01-25T04:52:25.685Z,4.05
2023-01-25T04:54:53.672Z,3.25
2023-01-25T04:57:21.793Z,3.63
2023-01-25T04:59:53.539Z,3.05
2023-01-25T05:02:23.724Z,3.30
2023-01-25T05:04:51.794Z,3.17
2023-01-25T05:07:22.714Z,3.72
2023-01-25T05:09:50.936Z,3.70
2023-01-25T05:12:20.762Z,3.47
2023-01-25T05:14:55.613Z,4.38
2023-01-25T05:17:23.997Z,4.03
2023-01-25T05:19:52.036Z,3.75
2023-01-25T05:22:24.794Z,3.40
2023-01-25T05:24:54.624Z,4.63
2023-01-25T05:27:22.881Z,4.25
2023-01-25T05:29:57.666Z,4.25
2023-01-25T05:32:50.063Z,3.83
2023-01-25T05:35:18.793Z,4.40
2023-01-25T05:37:48.924Z,5.15
2023-01-25T05:40:22.653Z,4.68
2023-01-25T05:42:57.323Z,4.32
2023-01-25T05:45:27.574Z,3.88
2023-01-25T05:47:57.441Z,4.70
2023-01-25T05:50:26.900Z,4.82
2023-01-25T05:53:27.547Z,3.83
2023-01-25T05:55:56.287Z,5.50
2023-01-25T05:58:24.242Z,5.72
2023-01-25T06:00:52.379Z,5.88
2023-01-25T06:03:31.546Z,4.75
2023-01-25T06:06:02.372Z,5.20
2023-01-25T06:08:33.095Z,5.70
2023-01-25T06:11:01.060Z,4.82
2023-01-25T06:13:29.982Z,4.90
2023-01-25T06:15:58.884Z,5.53
2023-01-25T06:18:42.499Z,5.45
2023-01-25T06:21:30.691Z,4.95
2023-01-25T06:24:00.190Z,6.10
2023-01-25T06:26:28.451Z,4.75
2023-01-25T06:28:56.369Z,6.57
2023-01-25T06:31:24.487Z,5.78
2023-01-25T06:33:53.366Z,4.82
2023-01-25T06:36:24.070Z,6.18
2023-01-25T06:38:53.272Z,5.95
2023-01-25T06:41:23.171Z,7.70
2023-01-25T06:43:52.453Z,6.72
2023-01-25T06:46:21.270Z,6.50
2023-01-25T06:48:49.426Z,4.88
2023-01-25T06:51:17.666Z,6.53
2023-01-25T06:53:47.337Z,8.40
2023-01-25T06:56:18.813Z,5.30
2023-01-25T06:58:48.460Z,6.57
2023-01-25T07:01:19.807Z,6.45
2023-01-25T07:03:49.735Z,8.00
2023-01-25T07:06:17.843Z,6.07
2023-01-25T07:08:45.869Z,7.70
2023-01-25T07:11:15.085Z,7.78
2023-01-25T07:13:45.578Z,7.53
2023-01-25T07:16:17.604Z,7.32
2023-01-25T07:18:45.775Z,6.50
2023-01-25T07:21:15.883Z,6.90
2023-01-25T07:23:44.791Z,7.40
2023-01-25T07:26:17.779Z,7.55
2023-01-25T07:28:46.248Z,7.75
2023-01-25T07:31:16.370Z,7.30
2023-01-25T07:33:44.868Z,9.70
2023-01-25T07:36:12.879Z,8.32
2023-01-25T07:38:40.908Z,11.43
2023-01-25T07:41:08.844Z,6.45
2023-01-25T07:43:36.756Z,6.47
2023-01-25T07:46:11.139Z,7.55
2023-01-25T07:48:41.353Z,6.85
2023-01-25T07:51:22.580Z,6.38
2023-01-25T07:53:52.702Z,7.10
2023-01-25T07:56:24.536Z,7.38
2023-01-25T07:58:55.044Z,6.32
2023-01-25T08:01:24.659Z,7.88
2023-01-25T08:03:55.973Z,7.43
2023-01-25T08:06:27.599Z,6.07
2023-01-25T08:08:58.417Z,6.07
2023-01-25T08:11:28.659Z,5.68
2023-01-25T08:13:56.976Z,5.75
2023-01-25T08:16:28.775Z,6.70
2023-01-25T08:19:00.428Z,6.35
2023-01-25T08:21:30.903Z,7.18
2023-01-25T08:23:59.754Z,6.75
2023-01-25T08:26:28.907Z,6.40
2023-01-25T08:28:57.411Z,7.40
2023-01-25T08:31:27.386Z,7.68
2023-01-25T08:33:55.703Z,6.35
2023-01-25T08:36:25.395Z,6.60
2023-01-25T08:38:56.751Z,8.23
2023-01-25T08:41:25.905Z,7.45
2023-01-25T08:43:56.276Z,7.88
2023-01-25T08:46:25.884Z,8.25
2023-01-25T08:48:54.914Z,7.60
2023-01-25T08:51:23.239Z,6.20
2023-01-25T08:53:52.586Z,7.20
2023-01-25T08:56:20.852Z,8.27
2023-01-25T08:58:50.520Z,7.88
2023-01-25T09:01:20.594Z,7.22
2023-01-25T09:03:50.580Z,9.20
2023-01-25T09:06:19.826Z,5.70
2023-01-25T09:08:48.761Z,7.20
2023-01-25T09:11:20.515Z,7.47
2023-01-25T09:13:49.142Z,7.43
2023-01-25T09:16:18.884Z,6.50
2023-01-25T09:18:49.751Z,6.20
2023-01-25T09:21:19.819Z,6.75
2023-01-25T09:23:51.605Z,6.38
2023-01-25T09:26:35.163Z,6.38
2023-01-25T09:29:04.959Z,5.95
2023-01-25T09:31:33.621Z,7.00
2023-01-25T09:34:33.918Z,6.25
2023-01-25T09:37:02.074Z,7.65
2023-01-25T09:39:30.081Z,7.18
2023-01-25T09:42:21.523Z,8.35
2023-01-25T09:45:12.123Z,7.25
2023-01-25T09:47:48.868Z,7.10
2023-01-25T09:50:36.796Z,7.78
2023-01-25T09:53:40.166Z,7.68
2023-01-25T09:56:13.448Z,8.23
2023-01-25T09:58:47.021Z,6.00
2023-01-25T10:01:38.220Z,6.82
2023-01-25T10:06:46.070Z,6.10
2023-01-25T10:09:27.727Z,6.38
2023-01-25T10:11:55.848Z,5.15
2023-01-25T10:14:26.077Z,6.18
2023-01-25T10:17:04.317Z,6.28
2023-01-25T10:19:45.017Z,6.70
2023-01-25T10:22:16.301Z,6.50
2023-01-25T10:25:12.125Z,5.32
2023-01-25T10:27:45.495Z,7.90
2023-01-25T10:30:29.017Z,7.65
2023-01-25T10:33:00.691Z,7.28
2023-01-25T10:35:35.892Z,6.30
2023-01-25T10:38:14.305Z,7.18
2023-01-25T10:40:47.408Z,5.93
2023-01-25T10:43:19.043Z,6.45
2023-01-25T10:45:50.203Z,6.35
2023-01-25T10:48:22.887Z,6.32
2023-01-25T10:50:54.142Z,8.20
2023-01-25T10:53:34.943Z,6.60
2023-01-25T10:56:25.433Z,7.15
2023-01-25T10:59:06.525Z,6.18
2023-01-25T11:01:37.736Z,6.88
2023-01-25T11:04:24.492Z,7.07
2023-01-25T11:06:52.839Z,7.10
2023-01-25T11:09:33.059Z,6.47
2023-01-25T11:12:02.693Z,6.78
2023-01-25T11:14:32.381Z,6.22
2023-01-25T11:17:03.028Z,6.35
2023-01-25T11:19:34.679Z,6.13
2023-01-25T11:22:04.927Z,5.93
2023-01-25T11:24:35.088Z,7.88
2023-01-25T11:27:19.671Z,6.70
2023-01-25T11:30:07.785Z,5.35
2023-01-25T11:32:39.563Z,6.72
2023-01-25T11:35:14.262Z,5.18
2023-01-25T11:37:59.741Z,5.88
2023-01-25T11:40:35.068Z,5.88
2023-01-25T11:43:16.250Z,6.18
2023-01-25T11:46:06.795Z,5.93
2023-01-25T11:48:50.632Z,5.82
2023-01-25T11:51:26.216Z,6.85
2023-01-25T11:54:15.864Z,4.90
2023-01-25T11:56:55.481Z,5.05
2023-01-25T11:59:39.674Z,5.60
2023-01-25T12:02:26.651Z,3.88
2023-01-25T12:05:22.383Z,7.07
2023-01-25T12:08:02.196Z,8.45
2023-01-25T12:10:41.286Z,7.93
2023-01-25T12:13:19.087Z,6.20
2023-01-25T12:16:01.037Z,4.80
2023-01-25T12:18:53.824Z,6.03
2023-01-25T12:21:36.822Z,6.28
2023-01-25T12:24:17.924Z,5.43
2023-01-25T12:26:55.145Z,5.43
2023-01-25T12:29:27.919Z,4.93
2023-01-25T12:32:01.656Z,4.97
2023-01-25T12:37:13.416Z,4.53
2023-01-25T12:39:46.591Z,5.15
2023-01-25T12:42:21.335Z,5.28
2023-01-25T12:44:57.286Z,5.72
2023-01-25T12:47:34.687Z,5.60
2023-01-25T12:50:14.556Z,4.80
2023-01-25T12:52:48.264Z,6.50
2023-01-25T12:55:18.215Z,4.70
2023-01-25T12:57:54.596Z,5.60
2023-01-25T13:00:27.134Z,5.22
2023-01-25T13:03:19.096Z,5.07
2023-01-25T13:05:53.160Z,6.13
2023-01-25T13:08:36.331Z,5.95
2023-01-25T13:11:15.787Z,6.13
2023-01-25T13:13:43.878Z,4.82
2023-01-25T13:16:35.405Z,6.20
2023-01-25T13:19:03.900Z,5.10
2023-01-25T13:21:44.946Z,5.43
2023-01-25T13:24:24.016Z,5.32
2023-01-25T13:27:03.379Z,6.28
2023-01-25T13:30:00.285Z,6.13
2023-01-25T13:33:03.339Z,5.57
2023-01-25T13:35:33.972Z,7.00
2023-01-25T13:38:05.551Z,7.25
2023-01-25T13:40:37.361Z,5.65
2023-01-25T13:43:17.311Z,4.90
2023-01-25T13:48:17.137Z,5.20
2023-01-25T13:50:48.356Z,4.72
2023-01-25T13:53:21.126Z,6.25
2023-01-25T13:55:52.245Z,3.88
2023-01-25T13:58:22.613Z,5.22
2023-01-25T14:00:54.043Z,4.93
2023-01-25T14:03:26.804Z,5.13
2023-01-25T14:05:57.079Z,4.97
2023-01-25T14:08:27.451Z,6.80
2023-01-25T14:10:58.257Z,5.80
2023-01-25T14:13:26.658Z,3.83
2023-01-25T14:15:57.274Z,4.28
2023-01-25T14:18:30.900Z,4.68
2023-01-25T14:21:13.944Z,4.43
2023-01-25T14:23:42.016Z,3.90
2023-01-25T14:26:19.889Z,4.30
2023-01-25T14:28:59.389Z,4.60
2023-01-25T14:31:33.594Z,4.45
2023-01-25T14:34:04.201Z,4.10
2023-01-25T14:36:35.308Z,4.65
2023-01-25T14:39:04.955Z,3.75
2023-01-25T14:41:40.152Z,3.97
2023-01-25T14:44:14.585Z,5.03
2023-01-25T14:46:43.007Z,3.92
2023-01-25T14:49:25.453Z,6.10
2023-01-25T14:52:03.799Z,3.97
2023-01-25T14:54:33.930Z,4.20
2023-01-25T14:57:05.536Z,4.63
2023-01-25T14:59:38.233Z,4.75
2023-01-25T15:02:20.526Z,4.57
2023-01-25T15:04:57.177Z,5.22
2023-01-25T15:07:37.917Z,4.25
2023-01-25T15:10:17.074Z,4.78
2023-01-25T15:13:11.686Z,5.18
2023-01-25T15:15:52.100Z,2.83
2023-01-25T15:18:42.616Z,4.03
2023-01-25T15:21:11.692Z,4.05
2023-01-25T15:23:42.098Z,4.38
2023-01-25T15:26:15.518Z,4.80
2023-01-25T15:28:44.972Z,6.63
2023-01-25T15:31:18.321Z,5.65
2023-01-25T15:33:46.791Z,5.45
2023-01-25T15:36:16.107Z,5.07
2023-01-25T15:38:44.159Z,5.15
2023-01-25T15:41:13.779Z,4.85
2023-01-25T15:43:42.288Z,5.40
2023-01-25T15:46:22.720Z,4.82
2023-01-25T15:48:51.959Z,4.90
2023-01-25T15:51:20.742Z,3.92
2023-01-25T15:53:48.851Z,4.38
2023-01-25T15:56:19.603Z,5.18
2023-01-25T15:58:51.510Z,4.38
2023-01-25T16:01:27.296Z,5.88
2023-01-25T16:03:56.275Z,4.55
2023-01-25T16:06:38.061Z,4.18
2023-01-25T16:09:15.050Z,5.50
2023-01-25T16:11:43.284Z,5.22
2023-01-25T16:14:11.367Z,5.13
2023-01-25T16:16:44.903Z,5.72
2023-01-25T16:19:14.538Z,5.00
2023-01-25T16:21:42.851Z,4.53
2023-01-25T16:24:12.169Z,5.60
2023-01-25T16:26:44.558Z,5.57
2023-01-25T16:29:13.793Z,6.32
2023-01-25T16:31:43.158Z,4.82
2023-01-25T16:34:11.254Z,6.32
2023-01-25T16:36:39.746Z,5.28
2023-01-25T16:39:10.224Z,6.10
2023-01-25T16:41:38.759Z,5.38
2023-01-25T16:44:06.822Z,7.10
2023-01-25T16:46:34.898Z,6.53
2023-01-25T16:49:06.955Z,6.43
2023-01-25T16:51:35.227Z,6.68
2023-01-25T16:54:03.277Z,8.38
2023-01-25T16:56:33.401Z,8.10
2023-01-25T16:59:03.658Z,6.80
2023-01-25T17:01:34.259Z,6.18
2023-01-25T17:04:02.337Z,6.47
2023-01-25T17:06:33.773Z,4.50
2023-01-25T17:09:12.585Z,5.85
2023-01-25T17:11:44.809Z,4.97
2023-01-25T17:14:15.538Z,5.75
2023-01-25T17:16:45.020Z,7.05
2023-01-25T17:19:16.204Z,6.55
2023-01-25T17:21:46.261Z,6.88
2023-01-25T17:24:15.797Z,7.65
2023-01-25T17:26:43.936Z,5.80
2023-01-25T17:29:13.614Z,6.32
2023-01-25T17:31:42.147Z,5.68
2023-01-25T17:34:15.865Z,6.38
2023-01-25T17:36:46.323Z,5.60
2023-01-25T17:39:15.726Z,7.20
2023-01-25T17:41:43.886Z,7.63
2023-01-25T17:44:11.952Z,6.53
2023-01-25T17:46:40.189Z,5.70
2023-01-25T17:49:12.137Z,6.65
2023-01-25T17:51:40.125Z,7.30
2023-01-25T17:54:09.795Z,7.97
2023-01-25T17:56:39.523Z,5.72
2023-01-25T17:59:11.536Z,6.68
2023-01-25T18:01:45.615Z,5.90
2023-01-25T18:04:17.373Z,6.60
2023-01-25T18:06:45.420Z,10.13
2023-01-25T18:09:14.953Z,11.43
2023-01-25T18:11:42.951Z,8.98
2023-01-25T18:14:15.174Z,9.88
2023-01-25T18:16:43.838Z,8.10
2023-01-25T18:19:12.320Z,9.85
2023-01-25T18:21:41.999Z,15.10
2023-01-25T18:24:25.940Z,10.60
2023-01-25T18:26:59.736Z,9.40
2023-01-25T18:29:46.270Z,9.77
2023-01-25T18:32:15.336Z,9.13
2023-01-25T18:34:43.692Z,10.48
2023-01-25T18:37:20.369Z,9.27
2023-01-25T18:39:50.893Z,8.20
2023-01-25T18:42:19.611Z,7.40
2023-01-25T18:44:49.043Z,5.97
2023-01-25T18:47:18.650Z,6.35
2023-01-25T18:49:47.605Z,8.00
2023-01-25T18:52:16.641Z,8.52
2023-01-25T18:54:45.193Z,9.25
2023-01-25T18:57:14.949Z,8.85
2023-01-25T18:59:43.056Z,8.68
2023-01-25T19:02:12.707Z,7.80
2023-01-25T19:04:41.013Z,7.38
2023-01-25T19:07:09.358Z,8.65
2023-01-25T19:09:37.502Z,8.07
2023-01-25T19:12:06.071Z,7.78
2023-01-25T19:14:35.499Z,7.78
2023-01-25T19:17:03.759Z,9.32
2023-01-25T19:19:33.691Z,8.57
2023-01-25T19:22:02.156Z,7.25
2023-01-25T19:24:30.892Z,12.18
2023-01-25T19:26:58.972Z,8.85
2023-01-25T19:29:27.079Z,8.02
2023-01-25T19:31:56.500Z,8.70
2023-01-25T19:34:24.636Z,8.60
2023-01-25T19:36:53.789Z,6.22
2023-01-25T19:39:21.839Z,8.75
2023-01-25T19:41:52.289Z,8.25
2023-01-25T19:44:20.644Z,7.07
2023-01-25T19:46:48.874Z,9.50
2023-01-25T19:49:18.479Z,8.60
2023-01-25T19:51:52.760Z,6.55
2023-01-25T19:54:21.673Z,7.82
2023-01-25T19:56:50.693Z,8.40
2023-01-25T19:59:20.877Z,10.15
2023-01-25T20:01:50.698Z,10.93
2023-01-25T20:04:22.338Z,8.50
2023-01-25T20:06:51.238Z,9.13
2023-01-25T20:09:20.643Z,10.48
2023-01-25T20:11:51.441Z,10.25
2023-01-25T20:14:19.638Z,10.25
2023-01-25T20:16:52.549Z,10.20
2023-01-25T20:19:21.953Z,8.38
2023-01-25T20:21:49.913Z,8.70
2023-01-25T20:24:17.988Z,9.43
2023-01-25T20:26:46.167Z,10.40
2023-01-25T20:29:14.617Z,9.80
2023-01-25T20:31:46.744Z,8.10
2023-01-25T20:34:16.386Z,9.70
2023-01-25T20:36:46.229Z,7.60
2023-01-25T20:39:16.316Z,8.68
2023-01-25T20:41:44.571Z,8.32
2023-01-25T20:44:14.816Z,8.55
2023-01-25T20:46:43.853Z,8.93
2023-01-25T20:49:15.890Z,7.35
2023-01-25T20:51:46.025Z,8.57
2023-01-25T20:54:14.253Z,9.27
2023-01-25T20:56:43.000Z,10.27
2023-01-25T20:59:11.228Z,8.25
2023-01-25T21:01:39.294Z,9.95
2023-01-25T21:04:09.607Z,8.30
2023-01-25T21:06:38.616Z,8.80
2023-01-25T21:09:08.298Z,9.10
2023-01-25T21:11:36.297Z,10.35
2023-01-25T21:14:04.422Z,8.73
2023-01-25T21:16:32.389Z,11.45
2023-01-25T21:19:05.144Z,9.07
2023-01-25T21:21:34.726Z,8.75
2023-01-25T21:24:05.387Z,9.88
2023-01-25T21:26:37.122Z,8.23
2023-01-25T21:29:06.508Z,8.57
2023-01-25T21:31:35.947Z,6.95
2023-01-25T21:34:05.118Z,9.48
2023-01-25T21:36:33.242Z,7.95
2023-01-25T21:39:01.362Z,9.75
2023-01-25T21:41:33.290Z,10.48
2023-01-25T21:44:22.177Z,8.23
2023-01-25T21:47:19.717Z,7.35
2023-01-25T21:49:55.626Z,7.97
2023-01-25T21:52:23.750Z,9.15
2023-01-25T21:54:51.671Z,9.15
2023-01-25T21:59:49.520Z,8.50
2023-01-25T22:02:17.577Z,7.88
2023-01-25T22:04:45.612Z,9.98
2023-01-25T22:07:13.539Z,9.23
2023-01-25T22:12:09.246Z,6.40
2023-01-25T22:14:37.207Z,9.00
2023-01-25T22:17:06.593Z,9.70
2023-01-25T22:19:34.511Z,10.65
2023-01-25T22:22:02.544Z,8.02
2023-01-25T22:24:30.484Z,10.30
2023-01-25T22:27:05.420Z,10.32
2023-01-25T22:29:33.989Z,12.73
2023-01-25T22:32:02.163Z,10.65
2023-01-25T22:34:31.663Z,10.95
2023-01-25T22:37:02.348Z,10.40
2023-01-25T22:39:30.259Z,13.82
2023-01-25T22:44:26.084Z,11.07
2023-01-25T22:46:54.099Z,11.00
2023-01-25T22:49:22.048Z,8.93
2023-01-25T22:54:19.217Z,12.23
2023-01-25T22:56:47.137Z,10.93
2023-01-25T23:01:47.292Z,9.73
2023-01-25T23:04:15.312Z,13.88
2023-01-25T23:06:46.356Z,12.95
2023-01-25T23:09:15.711Z,12.68
2023-01-25T23:11:43.626Z,12.55
2023-01-25T23:14:30.896Z,16.45
2023-01-25T23:17:12.912Z,13.27
2023-01-25T23:19:40.838Z,14.80
2023-01-25T23:24:37.968Z,13.32
2023-01-25T23:27:05.907Z,14.00
2023-01-25T23:29:33.924Z,14.30
2023-01-25T23:32:01.890Z,14.70
2023-01-25T23:34:34.630Z,15.10
2023-01-25T23:37:02.620Z,12.32
2023-01-25T23:39:30.573Z,12.40
2023-01-25T23:41:59.967Z,14.45
2023-01-25T23:44:28.206Z,15.30
2023-01-25T23:46:56.178Z,16.55
2023-01-25T23:49:24.178Z,15.43
2023-01-25T23:51:52.081Z,14.75
2023-01-25T23:56:47.932Z,13.88
